createdAt,value
2018-01-03T16:06:45.252Z,927.15
2018-01-03T16:07:45.088Z,927.20
2018-01-03T16:08:45.084Z,927.19
2018-01-03T16:09:45.079Z,927.18
2018-01-03T16:10:45.069Z,927.19
2018-01-03T16:11:45.069Z,927.19
2018-01-03T16:12:45.064Z,927.11
2018-01-03T16:13:45.062Z,927.15
2018-01-03T16:14:45.057Z,927.09
2018-01-03T16:15:45.054Z,927.04
2018-01-03T16:16:45.055Z,927.04
2018-01-03T16:17:45.043Z,927.12
2018-01-03T16:18:45.042Z,927.10
2018-01-03T16:19:45.044Z,927.09
2018-01-03T16:20:45.047Z,927.10
2018-01-03T16:21:45.035Z,927.10
2018-01-03T16:22:45.038Z,927.11
2018-01-03T16:23:45.037Z,927.12
2018-01-03T16:24:45.034Z,927.07
2018-01-03T16:25:45.032Z,927.11
2018-01-03T16:26:45.031Z,927.07
2018-01-03T16:27:45.030Z,927.06
2018-01-03T16:28:45.028Z,927.07
2018-01-03T16:29:45.030Z,927.10
2018-01-03T16:30:45.026Z,927.09
2018-01-03T16:31:45.025Z,927.06
2018-01-03T16:32:45.023Z,927.04
2018-01-03T16:33:45.022Z,927.08
2018-01-03T16:34:45.017Z,927.06
2018-01-03T16:35:45.021Z,927.10
2018-01-03T16:36:45.019Z,927.08
2018-01-03T16:37:45.018Z,927.05
2018-01-03T16:38:45.017Z,927.02
2018-01-03T16:39:45.017Z,927.02
2018-01-03T16:40:45.015Z,927.10
2018-01-03T16:41:45.014Z,927.10
2018-01-03T16:42:45.013Z,927.07
2018-01-03T16:43:45.012Z,927.08
2018-01-03T16:44:45.010Z,927.09
2018-01-03T16:45:45.009Z,927.12
2018-01-03T16:46:45.010Z,927.14
2018-01-03T16:47:45.007Z,927.14
2018-01-03T16:48:45.006Z,927.16
2018-01-03T16:49:44.999Z,927.19
2018-01-03T16:50:45.008Z,927.17
2018-01-03T16:51:45.002Z,927.14
2018-01-03T16:52:44.995Z,927.13
2018-01-03T16:53:44.998Z,927.10
2018-01-03T16:54:44.997Z,927.04
2018-01-03T16:55:44.992Z,927.06
2018-01-03T16:56:44.994Z,927.03
2018-01-03T16:57:44.993Z,927.02
2018-01-03T16:58:44.991Z,927.01
2018-01-03T16:59:44.986Z,927.03
2018-01-03T17:00:44.987Z,927.06
2018-01-03T17:01:44.986Z,927.02
2018-01-03T17:02:44.981Z,927.05
2018-01-03T17:03:44.984Z,927.03
2018-01-03T17:04:44.981Z,927.00
2018-01-03T17:05:44.980Z,926.99
2018-01-03T17:06:45.078Z,927.00
2018-01-03T17:07:44.977Z,927.00
2018-01-03T17:08:44.975Z,927.00
2018-01-03T17:09:44.973Z,927.00
2018-01-03T17:10:44.973Z,926.99
2018-01-03T17:11:44.969Z,926.99
2018-01-03T17:12:44.967Z,926.96
2018-01-03T17:13:44.961Z,926.96
2018-01-03T17:14:44.964Z,926.99
2018-01-03T17:15:44.958Z,926.99
2018-01-03T17:16:44.955Z,926.95
2018-01-03T17:17:44.958Z,926.95
2018-01-03T17:18:44.956Z,926.95
2018-01-03T17:19:44.953Z,927.00
2018-01-03T17:20:44.951Z,927.01
2018-01-03T17:21:44.949Z,927.07
2018-01-03T17:22:44.947Z,927.07
2018-01-03T17:23:44.945Z,927.09
2018-01-03T17:24:44.938Z,927.08
2018-01-03T17:25:44.935Z,927.09
2018-01-03T17:26:44.933Z,927.05
2018-01-03T17:27:44.940Z,927.08
2018-01-03T17:28:44.932Z,927.04
2018-01-03T17:29:44.929Z,927.03
2018-01-03T17:30:45.032Z,927.03
2018-01-03T17:31:44.924Z,926.99
2018-01-03T17:32:44.921Z,926.96
2018-01-03T17:33:44.918Z,926.98
2018-01-03T17:34:44.912Z,926.95
2018-01-03T17:35:44.910Z,926.95
2018-01-03T17:36:44.902Z,926.92
2018-01-03T17:37:44.900Z,926.88
2018-01-03T17:38:44.905Z,926.88
2018-01-03T17:39:44.898Z,926.83
2018-01-03T17:40:44.900Z,926.82
2018-01-03T17:41:44.897Z,926.85
2018-01-03T17:42:44.891Z,926.85
2018-01-03T17:43:44.889Z,926.87
2018-01-03T17:44:44.885Z,926.91
2018-01-03T17:45:44.883Z,926.90
2018-01-03T17:46:44.880Z,926.86
2018-01-03T17:47:44.882Z,926.84
2018-01-03T17:48:44.878Z,926.83
2018-01-03T17:49:44.876Z,926.80
2018-01-03T17:50:44.870Z,926.76
2018-01-03T17:51:44.871Z,926.79
2018-01-03T17:52:44.869Z,926.80
2018-01-03T17:53:44.865Z,926.82
2018-01-03T17:54:45.898Z,926.85
2018-01-03T17:55:44.857Z,926.87
2018-01-03T17:56:44.856Z,926.91
2018-01-03T17:57:44.849Z,926.93
2018-01-03T17:58:44.852Z,926.92
2018-01-03T17:59:44.843Z,927.00
2018-01-03T18:00:44.839Z,927.04
2018-01-03T18:01:44.832Z,927.00
2018-01-03T18:02:44.834Z,927.07
2018-01-03T18:03:46.036Z,927.08
2018-01-03T18:04:44.829Z,927.12
2018-01-03T18:05:44.824Z,927.17
2018-01-03T18:06:44.820Z,927.17
2018-01-03T18:07:44.812Z,927.23
2018-01-03T18:08:44.808Z,927.18
2018-01-03T18:09:44.805Z,927.20
2018-01-03T18:10:44.802Z,927.19
2018-01-03T18:11:44.803Z,927.24
2018-01-03T18:12:44.805Z,927.23
2018-01-03T18:13:44.795Z,927.19
2018-01-03T18:14:44.792Z,927.16
2018-01-03T18:15:44.788Z,927.15
2018-01-03T18:16:44.786Z,927.14
2018-01-03T18:17:44.780Z,927.12
2018-01-03T18:18:44.776Z,927.16
2018-01-03T18:19:44.773Z,927.08
2018-01-03T18:20:44.768Z,927.08
2018-01-03T18:21:44.765Z,927.08
2018-01-03T18:22:44.762Z,927.08
2018-01-03T18:23:44.759Z,927.06
2018-01-03T18:24:44.750Z,927.07
2018-01-03T18:25:44.747Z,927.07
2018-01-03T18:26:44.748Z,926.99
2018-01-03T18:27:44.746Z,927.02
2018-01-03T18:28:44.741Z,927.03
2018-01-03T18:29:44.734Z,927.01
2018-01-03T18:30:44.835Z,927.01
2018-01-03T18:31:44.728Z,927.01
2018-01-03T18:32:44.729Z,926.96
2018-01-03T18:33:44.721Z,926.93
2018-01-03T18:34:44.724Z,926.97
2018-01-03T18:35:44.720Z,926.97
2018-01-03T18:36:44.714Z,926.95
2018-01-03T18:37:44.714Z,926.96
2018-01-03T18:38:44.711Z,926.96
2018-01-03T18:39:44.704Z,926.95
2018-01-03T18:40:44.704Z,926.94
2018-01-03T18:41:44.697Z,926.96
2018-01-03T18:42:44.699Z,926.91
2018-01-03T18:43:44.696Z,926.90
2018-01-03T18:44:44.689Z,926.90
2018-01-03T18:45:44.692Z,926.92
2018-01-03T18:46:44.684Z,926.91
2018-01-03T18:47:44.682Z,926.91
2018-01-03T18:48:44.684Z,926.93
2018-01-03T18:49:44.680Z,926.89
2018-01-03T18:50:44.679Z,926.88
2018-01-03T18:51:44.676Z,926.91
2018-01-03T18:52:44.672Z,926.89
2018-01-03T18:53:44.666Z,926.91
2018-01-03T18:54:44.668Z,926.89
2018-01-03T18:55:44.661Z,926.88
2018-01-03T18:56:44.662Z,926.84
2018-01-03T18:57:44.660Z,926.86
2018-01-03T18:58:44.657Z,926.86
2018-01-03T18:59:44.655Z,926.83
2018-01-03T19:00:44.651Z,926.79
2018-01-03T19:01:44.655Z,926.79
2018-01-03T19:02:44.647Z,926.80
2018-01-03T19:03:44.645Z,926.81
2018-01-03T19:04:44.642Z,926.85
2018-01-03T19:05:44.643Z,926.84
2018-01-03T19:06:44.633Z,926.87
2018-01-03T19:07:44.636Z,926.87
2018-01-03T19:08:44.633Z,926.81
2018-01-03T19:09:44.630Z,926.83
2018-01-03T19:10:44.629Z,926.82
2018-01-03T19:11:44.621Z,926.86
2018-01-03T19:12:44.623Z,926.88
2018-01-03T19:13:44.621Z,926.90
2018-01-03T19:14:44.615Z,926.91
2018-01-03T19:15:44.616Z,926.90
2018-01-03T19:16:44.615Z,926.93
2018-01-03T19:17:44.612Z,926.90
2018-01-03T19:18:44.606Z,926.94
2018-01-03T19:19:44.604Z,926.94
2018-01-03T19:20:44.601Z,926.89
2018-01-03T19:21:44.604Z,926.99
2018-01-03T19:22:44.597Z,926.96
2018-01-03T19:23:44.599Z,926.96
2018-01-03T19:24:44.591Z,926.98
2018-01-03T19:25:44.589Z,926.98
2018-01-03T19:26:44.593Z,926.99
2018-01-03T19:27:44.585Z,926.96
2018-01-03T19:28:44.585Z,926.93
2018-01-03T19:29:44.579Z,926.95
2018-01-03T19:30:44.576Z,926.92
2018-01-03T19:31:44.578Z,926.91
2018-01-03T19:32:44.570Z,926.93
2018-01-03T19:33:44.567Z,926.93
2018-01-03T19:34:44.565Z,926.84
2018-01-03T19:35:44.562Z,926.90
2018-01-03T19:36:44.564Z,926.86
2018-01-03T19:37:44.560Z,926.90
2018-01-03T19:38:44.553Z,926.95
2018-01-03T19:39:44.550Z,926.88
2018-01-03T19:40:44.550Z,926.89
2018-01-03T19:41:44.544Z,926.98
2018-01-03T19:42:44.546Z,926.93
2018-01-03T19:43:44.543Z,927.01
2018-01-03T19:44:44.538Z,926.98
2018-01-03T19:45:44.535Z,927.02
2018-01-03T19:46:44.528Z,927.02
2018-01-03T19:47:44.525Z,927.00
2018-01-03T19:48:44.520Z,926.99
2018-01-03T19:49:44.517Z,927.00
2018-01-03T19:50:44.514Z,927.03
2018-01-03T19:51:44.516Z,927.14
2018-01-03T19:52:44.506Z,927.14
2018-01-03T19:53:44.502Z,927.13
2018-01-03T19:54:44.504Z,927.17
2018-01-03T19:55:44.500Z,927.19
2018-01-03T19:56:44.497Z,927.27
2018-01-03T19:57:44.492Z,927.31
2018-01-03T19:58:44.483Z,927.35
2018-01-03T19:59:44.480Z,927.37
2018-01-03T20:00:44.480Z,927.40
2018-01-03T20:01:44.476Z,927.39
2018-01-03T20:02:44.468Z,927.39
2018-01-03T20:03:44.464Z,927.33
2018-01-03T20:04:44.464Z,927.39
2018-01-03T20:05:44.459Z,927.35
2018-01-03T20:06:44.456Z,927.35
2018-01-03T20:07:44.447Z,927.40
2018-01-03T20:08:44.442Z,927.36
2018-01-03T20:09:44.442Z,927.41
2018-01-03T20:10:44.434Z,927.37
2018-01-03T20:11:44.430Z,927.40
2018-01-03T20:12:44.425Z,927.42
2018-01-03T20:13:44.424Z,927.43
2018-01-03T20:14:44.416Z,927.43
2018-01-03T20:15:44.413Z,927.39
2018-01-03T20:16:44.407Z,927.36
2018-01-03T20:17:44.404Z,927.36
2018-01-03T20:18:44.399Z,927.34
2018-01-03T20:19:44.399Z,927.35
2018-01-03T20:20:44.543Z,927.34
2018-01-03T20:21:44.390Z,927.35
2018-01-03T20:22:44.384Z,927.28
2018-01-03T20:23:44.384Z,927.32
2018-01-03T20:24:44.378Z,927.32
2018-01-03T20:25:44.370Z,927.26
2018-01-03T20:26:44.370Z,927.23
2018-01-03T20:27:44.366Z,927.26
2018-01-03T20:28:44.357Z,927.24
2018-01-03T20:29:44.352Z,927.26
2018-01-03T20:30:44.348Z,927.25
2018-01-03T20:31:44.345Z,927.27
2018-01-03T20:32:44.343Z,927.25
2018-01-03T20:33:44.339Z,927.29
2018-01-03T20:34:44.327Z,927.23
2018-01-03T20:35:44.331Z,927.25
2018-01-03T20:36:44.326Z,927.25
2018-01-03T20:37:44.314Z,927.23
2018-01-03T20:38:44.316Z,927.23
2018-01-03T20:39:44.309Z,927.24
2018-01-03T20:40:44.301Z,927.24
2018-01-03T20:41:44.300Z,927.31
2018-01-03T20:42:44.300Z,927.37
2018-01-03T20:43:44.296Z,927.38
2018-01-03T20:44:44.290Z,927.43
2018-01-03T20:45:44.284Z,927.47
2018-01-03T20:46:44.279Z,927.44
2018-01-03T20:47:44.278Z,927.54
2018-01-03T20:48:44.266Z,927.56
2018-01-03T20:49:44.270Z,927.58
2018-01-03T20:50:44.362Z,927.62
2018-01-03T20:51:44.258Z,927.64
2018-01-03T20:52:44.256Z,927.68
2018-01-03T20:53:44.252Z,927.69
2018-01-03T20:54:44.252Z,927.67
2018-01-03T20:55:44.240Z,927.72
2018-01-03T20:56:44.235Z,927.76
2018-01-03T20:57:44.227Z,927.77
2018-01-03T20:58:44.226Z,927.83
2018-01-03T20:59:44.222Z,927.86
2018-01-03T21:00:44.221Z,927.90
2018-01-03T21:01:44.217Z,927.91
2018-01-03T21:02:44.213Z,927.94
2018-01-03T21:03:44.204Z,928.03
2018-01-03T21:04:44.204Z,928.06
2018-01-03T21:05:44.199Z,928.10
2018-01-03T21:06:44.198Z,928.22
2018-01-03T21:07:44.186Z,928.19
2018-01-03T21:08:44.186Z,928.25
2018-01-03T21:09:44.177Z,928.23
2018-01-03T21:10:44.178Z,928.23
2018-01-03T21:11:44.170Z,928.25
2018-01-03T21:12:44.168Z,928.26
2018-01-03T21:13:44.159Z,928.28
2018-01-03T21:14:44.155Z,928.32
2018-01-03T21:15:44.150Z,928.35
2018-01-03T21:16:44.150Z,928.32
2018-01-03T21:17:44.141Z,928.41
2018-01-03T21:18:44.137Z,928.45
2018-01-03T21:19:44.136Z,928.45
2018-01-03T21:20:44.127Z,928.43
2018-01-03T21:21:44.123Z,928.49
2018-01-03T21:22:44.123Z,928.49
2018-01-03T21:23:44.118Z,928.50
2018-01-03T21:24:44.113Z,928.53
2018-01-03T21:25:44.105Z,928.44
2018-01-03T21:26:44.104Z,928.43
2018-01-03T21:27:44.100Z,928.44
2018-01-03T21:28:44.097Z,928.45
2018-01-03T21:29:44.086Z,928.47
2018-01-03T21:30:44.082Z,928.48
2018-01-03T21:31:44.084Z,928.52
2018-01-03T21:32:44.073Z,928.55
2018-01-03T21:33:44.068Z,928.57
2018-01-03T21:34:44.065Z,928.58
2018-01-03T21:35:44.055Z,928.60
2018-01-03T21:36:44.054Z,928.67
2018-01-03T21:37:44.049Z,928.60
2018-01-03T21:38:44.041Z,928.62
2018-01-03T21:39:44.036Z,928.70
2018-01-03T21:40:44.035Z,928.66
2018-01-03T21:41:44.026Z,928.64
2018-01-03T21:42:44.028Z,928.71
2018-01-03T21:43:44.017Z,928.69
2018-01-03T21:44:44.012Z,928.75
2018-01-03T21:45:44.011Z,928.73
2018-01-03T21:46:44.007Z,928.77
2018-01-03T21:47:44.003Z,928.84
2018-01-03T21:48:43.996Z,928.82
2018-01-03T21:49:43.992Z,928.86
2018-01-03T21:50:43.987Z,928.89
2018-01-03T21:51:43.983Z,928.88
2018-01-03T21:52:43.977Z,928.90
2018-01-03T21:53:43.973Z,928.88
2018-01-03T21:54:43.968Z,928.89
2018-01-03T21:55:43.963Z,928.91
2018-01-03T21:56:43.953Z,928.92
2018-01-03T21:57:43.948Z,928.93
2018-01-03T21:58:43.944Z,928.92
2018-01-03T21:59:43.943Z,928.92
2018-01-03T22:00:43.941Z,928.99
2018-01-03T22:01:43.933Z,928.91
2018-01-03T22:02:43.925Z,928.96
2018-01-03T22:03:43.920Z,928.97
2018-01-03T22:04:43.898Z,928.94
2018-01-03T22:05:43.893Z,928.98
2018-01-03T22:06:43.904Z,929.00
2018-01-03T22:07:43.884Z,929.02
2018-01-03T22:08:43.882Z,929.05
2018-01-03T22:09:43.873Z,929.08
2018-01-03T22:10:43.890Z,929.05
2018-01-03T22:11:43.868Z,929.11
2018-01-03T22:12:43.873Z,929.13
2018-01-03T22:13:43.857Z,929.04
2018-01-03T22:14:43.868Z,929.05
2018-01-03T22:15:43.859Z,929.05
2018-01-03T22:16:43.838Z,929.07
2018-01-03T22:17:43.837Z,929.07
2018-01-03T22:18:43.828Z,929.04
2018-01-03T22:19:43.824Z,929.07
2018-01-03T22:20:43.832Z,929.09
2018-01-03T22:21:43.815Z,929.01
2018-01-03T22:22:43.812Z,929.02
2018-01-03T22:23:43.822Z,928.98
2018-01-03T22:24:43.817Z,928.95
2018-01-03T22:25:43.796Z,928.98
2018-01-03T22:26:43.802Z,928.98
2018-01-03T22:27:43.802Z,928.98
2018-01-03T22:28:43.780Z,928.98
2018-01-03T22:29:43.791Z,928.97
2018-01-03T22:30:43.767Z,929.05
2018-01-03T22:31:43.766Z,929.04
2018-01-03T22:32:43.760Z,929.06
2018-01-03T22:33:43.766Z,929.08
2018-01-03T22:34:43.796Z,929.09
2018-01-03T22:35:43.746Z,929.11
2018-01-03T22:36:43.751Z,929.12
2018-01-03T22:37:43.734Z,929.15
2018-01-03T22:38:43.745Z,929.16
2018-01-03T22:39:43.740Z,929.20
2018-01-03T22:40:43.730Z,929.22
2018-01-03T22:41:43.733Z,929.21
2018-01-03T22:42:43.720Z,929.24
2018-01-03T22:43:43.724Z,929.28
2018-01-03T22:44:43.717Z,929.26
2018-01-03T22:45:43.704Z,929.31
2018-01-03T22:46:43.704Z,929.29
2018-01-03T22:47:43.698Z,929.28
2018-01-03T22:48:43.688Z,929.36
2018-01-03T22:49:43.691Z,929.36
2018-01-03T22:50:43.783Z,929.35
2018-01-03T22:51:43.674Z,929.37
2018-01-03T22:52:43.672Z,929.39
2018-01-03T22:53:43.664Z,929.39
2018-01-03T22:54:43.660Z,929.36
2018-01-03T22:55:43.659Z,929.34
2018-01-03T22:56:43.651Z,929.37
2018-01-03T22:57:43.646Z,929.35
2018-01-03T22:58:43.637Z,929.39
2018-01-03T22:59:43.636Z,929.40
2018-01-03T23:00:43.625Z,929.37
2018-01-03T23:01:43.624Z,929.38
2018-01-03T23:02:43.619Z,929.38
2018-01-03T23:03:43.615Z,929.43
2018-01-03T23:04:43.610Z,929.37
2018-01-03T23:05:43.608Z,929.40
2018-01-03T23:06:43.594Z,929.40
2018-01-03T23:07:43.597Z,929.38
2018-01-03T23:08:43.587Z,929.35
2018-01-03T23:09:43.582Z,929.38
2018-01-03T23:10:43.581Z,929.40
2018-01-03T23:11:43.572Z,929.45
2018-01-03T23:12:43.567Z,929.43
2018-01-03T23:13:43.561Z,929.47
2018-01-03T23:14:43.552Z,929.48
2018-01-03T23:15:43.555Z,929.52
2018-01-03T23:16:43.544Z,929.51
2018-01-03T23:17:43.535Z,929.55
2018-01-03T23:18:43.549Z,929.59
2018-01-03T23:19:43.525Z,929.61
2018-01-03T23:20:43.528Z,929.67
2018-01-03T23:21:43.513Z,929.74
2018-01-03T23:22:43.509Z,929.75
2018-01-03T23:23:43.513Z,929.71
2018-01-03T23:24:43.503Z,929.78
2018-01-03T23:25:43.496Z,929.79
2018-01-03T23:26:43.491Z,929.80
2018-01-03T23:27:43.490Z,929.85
2018-01-03T23:28:43.480Z,929.86
2018-01-03T23:29:43.474Z,929.88
2018-01-03T23:30:43.469Z,929.92
2018-01-03T23:31:43.465Z,929.95
2018-01-03T23:32:43.462Z,929.91
2018-01-03T23:33:43.448Z,929.95
2018-01-03T23:34:43.446Z,929.98
2018-01-03T23:35:43.445Z,930.01
2018-01-03T23:36:43.435Z,930.00
2018-01-03T23:37:43.436Z,930.01
2018-01-03T23:38:43.431Z,930.04
2018-01-03T23:39:43.424Z,930.07
2018-01-03T23:40:43.413Z,930.08
2018-01-03T23:41:43.408Z,930.16
2018-01-03T23:42:43.401Z,930.20
2018-01-03T23:43:43.401Z,930.27
2018-01-03T23:44:43.391Z,930.26
2018-01-03T23:45:43.382Z,930.27
2018-01-03T23:46:43.385Z,930.23
2018-01-03T23:47:43.376Z,930.25
2018-01-03T23:48:43.373Z,930.27
2018-01-03T23:49:43.364Z,930.29
2018-01-03T23:50:43.359Z,930.32
2018-01-03T23:51:43.354Z,930.34
2018-01-03T23:52:43.343Z,930.35
2018-01-03T23:53:43.338Z,930.34
2018-01-03T23:54:43.338Z,930.37
2018-01-03T23:55:43.328Z,930.38
2018-01-03T23:56:43.326Z,930.39
2018-01-03T23:57:43.320Z,930.37
2018-01-03T23:58:43.319Z,930.37
2018-01-03T23:59:43.310Z,930.34
